createdAt,value
2022-10-05T00:00:57.815Z,48.05
2022-10-05T00:01:58.116Z,48.42
2022-10-05T00:02:58.069Z,48.70
2022-10-05T00:03:58.242Z,48.50
2022-10-05T00:04:58.337Z,48.36
2022-10-05T00:05:58.432Z,47.72
2022-10-05T00:06:58.670Z,47.21
2022-10-05T00:07:58.674Z,46.92
2022-10-05T00:08:58.779Z,46.45
2022-10-05T00:09:58.930Z,45.84
2022-10-05T00:10:59.058Z,45.64
2022-10-05T00:11:59.214Z,44.66
2022-10-05T00:12:59.267Z,45.00
2022-10-05T00:13:59.365Z,44.10
2022-10-05T00:14:59.542Z,43.87
2022-10-05T00:15:59.641Z,43.64
2022-10-05T00:16:59.915Z,43.41
2022-10-05T00:17:59.890Z,43.01
2022-10-05T00:19:00.006Z,43.14
2022-10-05T00:20:00.121Z,42.70
2022-10-05T00:21:00.223Z,42.66
2022-10-05T00:22:00.364Z,42.83
2022-10-05T00:23:00.455Z,42.35
2022-10-05T00:24:00.566Z,42.35
2022-10-05T00:25:00.664Z,42.53
2022-10-05T00:26:00.773Z,42.44
2022-10-05T00:27:00.896Z,42.22
2022-10-05T00:28:01.047Z,42.44
2022-10-05T00:29:01.134Z,42.53
2022-10-05T00:30:01.236Z,42.61
2022-10-05T00:31:01.355Z,42.74
2022-10-05T00:32:01.523Z,43.01
2022-10-05T00:33:01.573Z,43.28
2022-10-05T00:34:01.723Z,43.19
2022-10-05T00:35:01.837Z,43.54
2022-10-05T00:36:01.984Z,43.32
2022-10-05T00:37:02.105Z,43.41
2022-10-05T00:38:02.214Z,43.19
2022-10-05T00:39:02.361Z,43.32
2022-10-05T00:40:02.470Z,43.68
2022-10-05T00:41:02.575Z,43.82
2022-10-05T00:42:02.676Z,43.77
2022-10-05T00:43:02.742Z,44.19
2022-10-05T00:44:02.884Z,44.43
2022-10-05T00:45:02.956Z,44.38
2022-10-05T00:46:03.125Z,44.85
2022-10-05T00:47:03.255Z,44.71
2022-10-05T00:48:03.330Z,45.00
2022-10-05T00:49:03.411Z,45.24
2022-10-05T00:50:03.561Z,45.05
2022-10-05T00:51:03.700Z,45.05
2022-10-05T00:52:03.909Z,45.44
2022-10-05T00:53:03.949Z,45.69
2022-10-05T00:54:04.058Z,45.39
2022-10-05T00:55:04.159Z,45.84
2022-10-05T00:56:04.260Z,45.64
2022-10-05T00:57:04.530Z,46.14
2022-10-05T00:58:04.527Z,46.25
2022-10-05T00:59:04.653Z,45.94
2022-10-05T01:00:04.762Z,46.09
2022-10-05T01:01:04.903Z,46.25
2022-10-05T01:02:05.185Z,46.19
2022-10-05T01:03:05.152Z,46.45
2022-10-05T01:04:05.248Z,46.56
2022-10-05T01:05:05.359Z,46.87
2022-10-05T01:06:05.436Z,46.71
2022-10-05T01:07:05.685Z,46.94
2022-10-05T01:08:05.717Z,46.82
2022-10-05T01:09:05.865Z,47.24
2022-10-05T01:10:05.955Z,47.37
2022-10-05T01:11:06.116Z,47.42
2022-10-05T01:12:06.367Z,47.86
2022-10-05T01:13:06.399Z,47.89
2022-10-05T01:14:06.544Z,48.19
2022-10-05T01:15:06.695Z,48.44
2022-10-05T01:16:06.830Z,48.50
2022-10-05T01:17:06.966Z,48.84
2022-10-05T01:18:07.063Z,48.61
2022-10-05T01:19:07.177Z,48.87
2022-10-05T01:20:07.253Z,49.19
2022-10-05T01:21:07.394Z,49.16
2022-10-05T01:22:07.580Z,49.16
2022-10-05T01:23:07.661Z,49.77
2022-10-05T01:24:07.814Z,49.89
2022-10-05T01:25:07.914Z,49.80
2022-10-05T01:26:08.013Z,50.13
2022-10-05T01:27:08.165Z,50.31
2022-10-05T01:28:08.277Z,50.53
2022-10-05T01:29:08.401Z,50.34
2022-10-05T01:30:08.502Z,50.80
2022-10-05T01:31:08.715Z,51.18
2022-10-05T01:32:08.760Z,51.15
2022-10-05T01:33:08.810Z,51.24
2022-10-05T01:34:11.506Z,51.37
2022-10-05T01:35:09.070Z,51.43
2022-10-05T01:36:09.220Z,51.34
2022-10-05T01:37:09.331Z,51.69
2022-10-05T01:38:09.438Z,51.94
2022-10-05T01:39:09.570Z,51.49
2022-10-05T01:40:09.719Z,51.56
2022-10-05T01:41:09.826Z,51.75
2022-10-05T01:42:09.970Z,51.69
2022-10-05T01:43:10.078Z,52.24
2022-10-05T01:44:10.168Z,52.63
2022-10-05T01:45:10.268Z,52.86
2022-10-05T01:46:10.478Z,52.97
2022-10-05T01:47:10.595Z,52.86
2022-10-05T01:48:10.695Z,52.83
2022-10-05T01:49:10.780Z,52.90
2022-10-05T01:50:10.933Z,52.53
2022-10-05T01:51:11.029Z,52.73
2022-10-05T01:52:11.167Z,52.53
2022-10-05T01:53:11.266Z,52.33
2022-10-05T01:54:11.403Z,52.53
2022-10-05T01:55:11.552Z,52.86
2022-10-05T01:56:11.684Z,52.56
2022-10-05T01:57:11.892Z,52.76
2022-10-05T01:58:11.974Z,52.76
2022-10-05T01:59:12.074Z,52.80
2022-10-05T02:00:12.174Z,52.83
2022-10-05T02:01:12.301Z,52.70
2022-10-05T02:02:12.509Z,52.24
2022-10-05T02:03:12.523Z,52.27
2022-10-05T02:04:18.657Z,52.20
2022-10-05T02:05:13.751Z,52.20
2022-10-05T02:06:12.829Z,52.27
2022-10-05T02:07:13.020Z,52.47
2022-10-05T02:08:13.152Z,52.53
2022-10-05T02:09:13.252Z,52.24
2022-10-05T02:10:13.392Z,52.17
2022-10-05T02:11:13.543Z,52.07
2022-10-05T02:12:13.833Z,51.12
2022-10-05T02:13:13.831Z,50.99
2022-10-05T02:14:13.943Z,51.24
2022-10-05T02:15:14.033Z,51.08
2022-10-05T02:16:14.272Z,51.18
2022-10-05T02:17:14.313Z,50.65
2022-10-05T02:18:14.413Z,50.83
2022-10-05T02:19:14.544Z,50.34
2022-10-05T02:20:14.679Z,49.98
2022-10-05T02:21:14.777Z,49.83
2022-10-05T02:22:14.957Z,49.65
2022-10-05T02:23:15.087Z,49.74
2022-10-05T02:24:15.194Z,49.69
2022-10-05T02:25:15.289Z,49.80
2022-10-05T02:26:15.405Z,49.69
2022-10-05T02:27:15.527Z,49.69
2022-10-05T02:28:15.677Z,49.69
2022-10-05T02:29:15.792Z,50.01
2022-10-05T02:30:16.820Z,49.69
2022-10-05T02:31:16.052Z,49.77
2022-10-05T02:32:16.169Z,49.60
2022-10-05T02:33:16.276Z,49.63
2022-10-05T02:34:16.401Z,49.80
2022-10-05T02:35:16.567Z,49.71
2022-10-05T02:36:16.666Z,49.77
2022-10-05T02:37:16.807Z,49.89
2022-10-05T02:38:16.895Z,49.98
2022-10-05T02:39:17.053Z,49.71
2022-10-05T02:40:17.166Z,49.83
2022-10-05T02:41:17.264Z,49.54
2022-10-05T02:42:17.423Z,49.51
2022-10-05T02:43:17.522Z,49.63
2022-10-05T02:44:17.603Z,49.19
2022-10-05T02:45:17.745Z,49.69
2022-10-05T02:46:17.916Z,49.33
2022-10-05T02:47:18.044Z,49.42
2022-10-05T02:48:18.183Z,49.48
2022-10-05T02:49:18.264Z,50.04
2022-10-05T02:50:18.412Z,49.86
2022-10-05T02:51:18.523Z,49.54
2022-10-05T02:52:18.801Z,49.51
2022-10-05T02:53:18.789Z,49.54
2022-10-05T02:54:18.940Z,49.77
2022-10-05T02:55:19.041Z,49.86
2022-10-05T02:56:19.140Z,50.04
2022-10-05T02:57:19.266Z,49.71
2022-10-05T02:58:19.382Z,50.04
2022-10-05T02:59:19.482Z,49.95
2022-10-05T03:00:19.621Z,50.19
2022-10-05T03:01:19.809Z,49.98
2022-10-05T03:02:19.998Z,49.98
2022-10-05T03:03:20.009Z,50.01
2022-10-05T03:04:20.159Z,50.44
2022-10-05T03:05:20.279Z,50.59
2022-10-05T03:06:20.388Z,51.18
2022-10-05T03:07:20.537Z,51.49
2022-10-05T03:08:20.588Z,51.72
2022-10-05T03:09:20.686Z,52.30
2022-10-05T03:10:20.768Z,52.90
2022-10-05T03:11:20.909Z,53.44
2022-10-05T03:12:21.110Z,53.30
2022-10-05T03:13:21.230Z,53.89
2022-10-05T03:14:21.307Z,54.03
2022-10-05T03:15:21.447Z,54.42
2022-10-05T03:16:21.650Z,54.24
2022-10-05T03:17:21.856Z,54.52
2022-10-05T03:18:21.826Z,55.28
2022-10-05T03:19:21.969Z,55.58
2022-10-05T03:20:22.088Z,55.84
2022-10-05T03:21:22.176Z,56.52
2022-10-05T03:22:22.347Z,57.17
2022-10-05T03:23:22.446Z,58.01
2022-10-05T03:24:22.546Z,58.91
2022-10-05T03:25:22.635Z,59.58
2022-10-05T03:26:22.774Z,60.06
2022-10-05T03:27:23.005Z,60.71
2022-10-05T03:28:23.110Z,61.43
2022-10-05T03:29:23.164Z,62.16
2022-10-05T03:30:23.309Z,63.19
2022-10-05T03:31:23.506Z,63.48
2022-10-05T03:32:23.625Z,64.02
2022-10-05T03:33:23.712Z,64.86
2022-10-05T03:34:23.842Z,66.26
2022-10-05T03:35:23.962Z,67.16
2022-10-05T03:36:24.134Z,68.60
2022-10-05T03:37:24.309Z,69.57
2022-10-05T03:38:24.376Z,70.39
2022-10-05T03:39:24.484Z,71.05
2022-10-05T03:40:24.622Z,71.79
2022-10-05T03:41:24.760Z,71.85
2022-10-05T03:42:24.951Z,72.35
2022-10-05T03:43:25.061Z,72.72
2022-10-05T03:44:25.181Z,73.43
2022-10-05T03:45:25.354Z,73.11
2022-10-05T03:46:25.492Z,72.79
2022-10-05T03:47:25.629Z,73.11
2022-10-05T03:48:25.735Z,73.43
2022-10-05T03:49:25.839Z,73.17
2022-10-05T03:50:26.958Z,74.01
2022-10-05T03:51:26.108Z,75.01
2022-10-05T03:52:26.223Z,75.69
2022-10-05T03:53:26.448Z,76.46
2022-10-05T03:54:26.507Z,76.81
2022-10-05T03:55:26.607Z,77.52
2022-10-05T03:56:26.737Z,78.10
2022-10-05T03:57:26.941Z,78.62
2022-10-05T03:58:27.027Z,79.29
2022-10-05T03:59:32.202Z,80.51
2022-10-05T04:00:28.266Z,81.86
2022-10-05T04:01:27.437Z,82.02
2022-10-05T04:02:27.658Z,83.08
2022-10-05T04:03:27.658Z,83.24
2022-10-05T04:04:27.787Z,83.91
2022-10-05T04:05:27.915Z,84.34
2022-10-05T04:06:28.064Z,84.68
2022-10-05T04:07:28.205Z,85.29
2022-10-05T04:08:28.387Z,85.64
2022-10-05T04:09:28.453Z,85.64
2022-10-05T04:10:28.593Z,85.99
2022-10-05T04:11:28.740Z,86.35
2022-10-05T04:12:28.925Z,86.35
2022-10-05T04:13:29.013Z,87.43
2022-10-05T04:14:29.142Z,87.61
2022-10-05T04:15:29.306Z,87.43
2022-10-05T04:16:29.443Z,87.07
2022-10-05T04:17:29.821Z,87.52
2022-10-05T04:18:29.703Z,87.80
2022-10-05T04:19:29.862Z,87.07
2022-10-05T04:20:29.962Z,86.70
2022-10-05T04:21:30.121Z,86.17
2022-10-05T04:22:30.247Z,86.43
2022-10-05T04:23:30.361Z,87.07
2022-10-05T04:24:30.472Z,87.71
2022-10-05T04:25:30.599Z,88.26
2022-10-05T04:26:30.742Z,88.26
2022-10-05T04:27:30.949Z,88.64
2022-10-05T04:28:32.435Z,89.11
2022-10-05T04:29:31.194Z,88.83
2022-10-05T04:30:31.312Z,88.36
2022-10-05T04:31:31.515Z,88.83
2022-10-05T04:32:31.599Z,88.54
2022-10-05T04:33:31.739Z,88.92
2022-10-05T04:34:31.892Z,88.64
2022-10-05T04:35:31.999Z,88.64
2022-10-05T04:36:32.137Z,88.73
2022-10-05T04:37:32.309Z,88.64
2022-10-05T04:38:32.419Z,88.64
2022-10-05T04:39:32.528Z,89.02
2022-10-05T04:40:32.707Z,89.11
2022-10-05T04:41:33.798Z,88.92
2022-10-05T04:42:33.017Z,89.69
2022-10-05T04:43:33.080Z,90.17
2022-10-05T04:44:33.191Z,90.46
2022-10-05T04:45:33.335Z,91.56
2022-10-05T04:46:33.524Z,90.86
2022-10-05T04:47:33.637Z,90.96
2022-10-05T04:48:33.716Z,91.86
2022-10-05T04:49:33.846Z,92.99
2022-10-05T04:50:34.005Z,93.40
2022-10-05T04:51:34.143Z,94.57
2022-10-05T04:52:34.245Z,95.00
2022-10-05T04:53:34.394Z,95.65
2022-10-05T04:54:34.493Z,94.44
2022-10-05T04:55:34.619Z,94.65
2022-10-05T04:56:34.764Z,95.68
2022-10-05T04:57:34.934Z,97.19
2022-10-05T04:58:38.858Z,97.64
2022-10-05T04:59:37.154Z,97.25
2022-10-05T05:00:35.374Z,98.33
2022-10-05T05:01:35.463Z,96.96
2022-10-05T05:02:35.654Z,96.74
2022-10-05T05:03:35.766Z,98.92
2022-10-05T05:04:35.843Z,100.65
2022-10-05T05:05:44.556Z,101.14
2022-10-05T05:06:37.123Z,100.89
2022-10-05T05:07:36.281Z,101.50
2022-10-05T05:08:36.391Z,101.82
2022-10-05T05:09:36.460Z,103.07
2022-10-05T05:10:36.588Z,103.14
2022-10-05T05:11:36.690Z,104.36
2022-10-05T05:12:36.848Z,105.28
2022-10-05T05:13:36.989Z,106.29
2022-10-05T05:14:37.061Z,107.73
2022-10-05T05:15:37.140Z,107.18
2022-10-05T05:16:37.299Z,107.04
2022-10-05T05:17:37.524Z,107.73
2022-10-05T05:18:37.473Z,107.80
2022-10-05T05:19:37.569Z,106.29
2022-10-05T05:20:37.669Z,106.70
2022-10-05T05:21:37.831Z,108.36
2022-10-05T05:22:38.027Z,109.43
2022-10-05T05:23:38.052Z,110.29
2022-10-05T05:24:38.188Z,112.75
2022-10-05T05:25:38.339Z,113.91
2022-10-05T05:26:39.183Z,115.80
2022-10-05T05:27:38.638Z,115.89
2022-10-05T05:28:38.742Z,116.69
2022-10-05T05:29:38.817Z,116.29
2022-10-05T05:30:38.927Z,117.19
2022-10-05T05:31:39.091Z,118.86
2022-10-05T05:32:39.165Z,119.71
2022-10-05T05:33:39.246Z,121.81
2022-10-05T05:34:39.398Z,122.61
2022-10-05T05:35:39.509Z,124.07
2022-10-05T05:36:39.616Z,126.04
2022-10-05T05:37:39.747Z,128.27
2022-10-05T05:38:39.866Z,127.97
2022-10-05T05:39:39.986Z,128.76
2022-10-05T05:40:40.085Z,129.46
2022-10-05T05:41:40.223Z,130.99
2022-10-05T05:42:40.397Z,131.71
2022-10-05T05:43:40.493Z,130.78
2022-10-05T05:44:40.601Z,131.71
2022-10-05T05:45:40.687Z,134.68
2022-10-05T05:47:02.414Z,135.78
2022-10-05T05:47:42.019Z,135.34
2022-10-05T05:48:41.159Z,136.90
2022-10-05T05:49:41.250Z,137.35
2022-10-05T05:50:41.381Z,139.18
2022-10-05T05:51:41.530Z,139.64
2022-10-05T05:52:41.711Z,141.30
2022-10-05T05:53:41.771Z,144.11
2022-10-05T05:54:41.891Z,145.23
2022-10-05T05:55:42.004Z,148.86
2022-10-05T05:56:42.090Z,149.80
2022-10-05T05:57:42.360Z,150.20
2022-10-05T05:58:42.340Z,152.40
2022-10-05T05:59:42.510Z,155.38
2022-10-05T06:00:42.620Z,157.43
2022-10-05T06:01:44.717Z,157.58
2022-10-05T06:02:43.057Z,159.99
2022-10-05T06:03:43.030Z,161.70
2022-10-05T06:04:43.063Z,165.88
2022-10-05T06:05:43.199Z,168.05
2022-10-05T06:06:43.654Z,172.75
2022-10-05T06:07:43.509Z,175.10
2022-10-05T06:08:43.567Z,176.77
2022-10-05T06:09:43.655Z,179.24
2022-10-05T06:10:43.800Z,182.38
2022-10-05T06:11:43.937Z,181.78
2022-10-05T06:12:44.117Z,183.99
2022-10-05T06:13:44.225Z,185.83
2022-10-05T06:14:44.347Z,186.89
2022-10-05T06:15:44.459Z,187.43
2022-10-05T06:16:44.883Z,189.59
2022-10-05T06:17:44.750Z,189.92
2022-10-05T06:18:44.792Z,189.37
2022-10-05T06:19:44.947Z,189.37
2022-10-05T06:20:45.066Z,190.80
2022-10-05T06:21:45.181Z,194.31
2022-10-05T06:22:45.335Z,197.11
2022-10-05T06:23:45.452Z,194.88
2022-10-05T06:24:45.583Z,194.31
2022-10-05T06:25:45.690Z,197.23
2022-10-05T06:26:45.949Z,198.30
2022-10-05T06:27:45.991Z,202.21
2022-10-05T06:28:46.062Z,203.09
2022-10-05T06:29:46.173Z,202.46
2022-10-05T06:30:46.259Z,202.58
2022-10-05T06:31:46.486Z,203.97
2022-10-05T06:32:46.553Z,207.71
2022-10-05T06:33:46.652Z,208.11
2022-10-05T06:34:46.762Z,207.58
2022-10-05T06:35:46.885Z,208.37
2022-10-05T06:36:47.364Z,210.78
2022-10-05T06:37:47.170Z,211.33
2022-10-05T06:38:47.244Z,211.05
2022-10-05T06:39:47.322Z,212.70
2022-10-05T06:40:47.462Z,211.33
2022-10-05T06:41:47.581Z,212.97
2022-10-05T06:42:47.708Z,214.22
2022-10-05T06:43:47.808Z,216.77
2022-10-05T06:44:47.910Z,218.79
2022-10-05T06:45:48.082Z,220.56
2022-10-05T06:46:48.531Z,222.35
2022-10-05T06:47:48.239Z,224.79
2022-10-05T06:48:48.334Z,220.26
2022-10-05T06:49:48.421Z,221.01
2022-10-05T06:50:48.567Z,224.64
2022-10-05T06:51:48.649Z,225.56
2022-10-05T06:52:48.838Z,223.41
2022-10-05T06:53:48.941Z,227.44
2022-10-05T06:54:49.069Z,226.34
2022-10-05T06:55:49.180Z,226.81
2022-10-05T06:56:49.771Z,227.91
2022-10-05T06:57:49.497Z,225.72
2022-10-05T06:58:49.536Z,230.80
2022-10-05T06:59:49.697Z,231.78
2022-10-05T07:00:49.844Z,232.76
2022-10-05T07:01:50.239Z,229.83
2022-10-05T07:02:50.076Z,226.65
2022-10-05T07:03:50.197Z,225.41
2022-10-05T07:04:50.327Z,227.28
2022-10-05T07:05:50.467Z,230.15
2022-10-05T07:06:50.586Z,232.93
2022-10-05T07:07:50.718Z,234.09
2022-10-05T07:08:50.805Z,231.29
2022-10-05T07:09:50.955Z,231.94
2022-10-05T07:10:51.064Z,233.93
2022-10-05T07:11:55.815Z,240.62
2022-10-05T07:12:52.394Z,245.66
2022-10-05T07:13:51.458Z,248.07
2022-10-05T07:14:51.564Z,247.89
2022-10-05T07:15:51.653Z,251.69
2022-10-05T07:16:51.827Z,254.82
2022-10-05T07:17:51.987Z,256.81
2022-10-05T07:18:52.083Z,256.41
2022-10-05T07:19:52.233Z,258.63
2022-10-05T07:20:52.354Z,261.52
2022-10-05T07:21:52.460Z,261.52
2022-10-05T07:22:53.143Z,261.94
2022-10-05T07:23:52.712Z,266.40
2022-10-05T07:24:52.822Z,272.60
2022-10-05T07:25:52.923Z,274.20
2022-10-05T07:26:53.022Z,279.33
2022-10-05T07:27:53.276Z,281.97
2022-10-05T07:28:53.262Z,282.70
2022-10-05T07:29:53.351Z,289.94
2022-10-05T07:30:53.506Z,290.20
2022-10-05T07:31:53.599Z,295.69
2022-10-05T07:32:53.711Z,297.30
2022-10-05T07:33:53.865Z,300.57
2022-10-05T07:34:53.930Z,305.61
2022-10-05T07:35:54.029Z,308.48
2022-10-05T07:36:55.187Z,309.64
2022-10-05T07:37:54.269Z,312.60
2022-10-05T07:38:54.411Z,314.09
2022-10-05T07:40:00.700Z,315.60
2022-10-05T07:40:55.580Z,318.05
2022-10-05T07:41:54.720Z,322.42
2022-10-05T07:42:56.378Z,324.98
2022-10-05T07:44:02.571Z,329.55
2022-10-05T07:44:56.083Z,335.62
2022-10-05T07:45:55.175Z,340.49
2022-10-05T07:46:55.248Z,346.61
2022-10-05T07:47:55.370Z,352.57
2022-10-05T07:48:55.528Z,350.68
2022-10-05T07:49:55.578Z,359.91
2022-10-05T07:50:55.681Z,364.71
2022-10-05T07:51:55.777Z,373.01
2022-10-05T07:52:55.933Z,381.70
2022-10-05T07:53:56.187Z,385.90
2022-10-05T07:54:56.187Z,387.02
2022-10-05T07:55:56.285Z,392.72
2022-10-05T07:56:56.466Z,397.16
2022-10-05T07:57:56.576Z,400.50
2022-10-05T07:58:56.717Z,400.26
2022-10-05T07:59:56.779Z,393.18
2022-10-05T08:00:56.883Z,401.46
2022-10-05T08:01:57.093Z,405.62
2022-10-05T08:02:57.173Z,409.60
2022-10-05T08:03:57.307Z,412.39
2022-10-05T08:04:57.373Z,415.21
2022-10-05T08:05:57.474Z,426.91
2022-10-05T08:06:57.634Z,438.71
2022-10-05T08:07:57.745Z,444.85
2022-10-05T08:08:57.914Z,453.32
2022-10-05T08:09:57.996Z,457.36
2022-10-05T08:10:58.137Z,461.48
2022-10-05T08:11:58.285Z,473.94
2022-10-05T08:12:58.414Z,478.70
2022-10-05T08:13:58.524Z,480.43
2022-10-05T08:14:58.613Z,487.45
2022-10-05T08:15:58.817Z,492.49
2022-10-05T08:16:58.844Z,496.89
2022-10-05T08:17:58.996Z,493.22
2022-10-05T08:18:59.172Z,498.75
2022-10-05T08:19:59.203Z,493.58
2022-10-05T08:20:59.375Z,492.86
2022-10-05T08:21:59.473Z,491.40
2022-10-05T08:22:59.625Z,479.39
2022-10-05T08:23:59.773Z,475.97
2022-10-05T08:24:59.875Z,469.60
2022-10-05T08:26:00.002Z,460.20
2022-10-05T08:27:00.145Z,452.09
2022-10-05T08:28:00.368Z,449.95
2022-10-05T08:29:00.452Z,442.49
2022-10-05T08:30:00.588Z,447.54
2022-10-05T08:31:00.700Z,439.28
2022-10-05T08:32:00.803Z,431.05
2022-10-05T08:33:00.902Z,429.94
2022-10-05T08:34:01.313Z,423.39
2022-10-05T08:35:01.089Z,417.82
2022-10-05T08:36:01.229Z,419.65
2022-10-05T08:37:01.371Z,416.77
2022-10-05T08:38:01.462Z,418.60
2022-10-05T08:39:01.718Z,416.51
2022-10-05T08:40:01.751Z,419.13
2022-10-05T08:41:01.922Z,418.60
2022-10-05T08:42:02.029Z,413.15
2022-10-05T08:43:02.149Z,408.10
2022-10-05T08:44:02.311Z,411.88
2022-10-05T08:45:02.351Z,406.11
2022-10-05T08:46:02.503Z,404.63
2022-10-05T08:47:02.583Z,406.85
2022-10-05T08:48:02.679Z,403.16
2022-10-05T08:49:02.850Z,402.19
2022-10-05T08:50:02.958Z,398.82
2022-10-05T08:51:03.069Z,398.35
2022-10-05T08:52:03.149Z,396.22
2022-10-05T08:53:03.262Z,398.11
2022-10-05T08:54:03.400Z,400.50
2022-10-05T08:55:03.492Z,397.16
2022-10-05T08:56:03.579Z,403.41
2022-10-05T08:57:03.727Z,402.68
2022-10-05T08:58:03.844Z,394.81
2022-10-05T08:59:04.000Z,395.04
2022-10-05T09:00:04.098Z,404.63
2022-10-05T09:01:04.296Z,408.10
2022-10-05T09:02:04.486Z,417.55
2022-10-05T09:03:04.492Z,417.55
2022-10-05T09:04:04.608Z,420.98
2022-10-05T09:05:04.707Z,416.77
2022-10-05T09:06:04.858Z,420.18
2022-10-05T09:07:04.965Z,421.51
2022-10-05T09:08:05.075Z,426.36
2022-10-05T09:09:05.240Z,426.64
2022-10-05T09:10:05.288Z,414.95
2022-10-05T09:11:05.432Z,422.05
2022-10-05T09:12:05.526Z,425.55
2022-10-05T09:13:05.636Z,417.29
2022-10-05T09:14:05.857Z,410.36
2022-10-05T09:15:24.723Z,417.03
2022-10-05T09:16:07.019Z,408.60
2022-10-05T09:17:06.176Z,399.30
2022-10-05T09:18:06.226Z,406.36
2022-10-05T09:19:07.346Z,409.85
2022-10-05T09:20:06.435Z,396.69
2022-10-05T09:21:06.517Z,391.10
2022-10-05T09:22:06.665Z,395.04
2022-10-05T09:23:06.876Z,405.12
2022-10-05T09:24:06.954Z,416.77
2022-10-05T09:25:07.014Z,422.05
2022-10-05T09:26:07.105Z,422.31
2022-10-05T09:27:07.255Z,418.34
2022-10-05T09:28:07.449Z,429.38
2022-10-05T09:29:07.526Z,422.58
2022-10-05T09:30:07.627Z,415.47
2022-10-05T09:31:07.827Z,424.73
2022-10-05T09:32:07.905Z,418.34
2022-10-05T09:33:08.051Z,410.86
2022-10-05T09:34:08.183Z,415.21
2022-10-05T09:35:08.382Z,421.51
2022-10-05T09:36:08.383Z,425.82
2022-10-05T09:37:08.521Z,427.18
2022-10-05T09:38:08.670Z,433.29
2022-10-05T09:39:08.912Z,432.73
2022-10-05T09:40:08.924Z,430.49
2022-10-05T09:41:09.015Z,436.69
2022-10-05T09:42:09.122Z,438.42
2022-10-05T09:43:09.261Z,433.29
2022-10-05T09:44:09.410Z,439.57
2022-10-05T09:45:09.492Z,434.98
2022-10-05T09:46:09.703Z,441.32
2022-10-05T09:47:09.771Z,446.04
2022-10-05T09:48:09.906Z,445.15
2022-10-05T09:49:10.081Z,446.64
2022-10-05T09:50:10.179Z,449.95
2022-10-05T09:51:10.242Z,443.67
2022-10-05T09:52:13.083Z,449.05
2022-10-05T09:53:10.520Z,458.30
2022-10-05T09:54:10.655Z,453.63
2022-10-05T09:55:10.751Z,457.05
2022-10-05T09:56:10.860Z,451.48
2022-10-05T09:57:10.961Z,461.16
2022-10-05T09:58:11.109Z,466.32
2022-10-05T09:59:11.300Z,465.34
2022-10-05T10:00:11.351Z,467.62
2022-10-05T10:01:29.024Z,472.60
2022-10-05T10:02:12.707Z,476.65
2022-10-05T10:03:11.745Z,480.08
2022-10-05T10:04:11.868Z,481.47
2022-10-05T10:05:11.910Z,483.56
2022-10-05T10:06:12.019Z,486.38
2022-10-05T10:07:12.128Z,478.36
2022-10-05T10:08:12.249Z,476.31
2022-10-05T10:09:12.379Z,473.60
2022-10-05T10:10:12.469Z,478.02
2022-10-05T10:11:12.608Z,490.32
2022-10-05T10:12:12.769Z,495.42
2022-10-05T10:13:12.878Z,498.38
2022-10-05T10:14:13.011Z,504.79
2022-10-05T10:15:13.138Z,516.12
2022-10-05T10:16:13.423Z,525.48
2022-10-05T10:17:13.402Z,531.76
2022-10-05T10:18:13.545Z,534.32
2022-10-05T10:19:13.688Z,539.07
2022-10-05T10:20:13.708Z,538.20
2022-10-05T10:21:13.858Z,544.35
2022-10-05T10:22:13.965Z,547.03
2022-10-05T10:23:14.047Z,558.49
2022-10-05T10:24:14.236Z,561.31
2022-10-05T10:25:14.347Z,560.36
2022-10-05T10:26:14.456Z,556.16
2022-10-05T10:27:14.575Z,553.85
2022-10-05T10:28:14.720Z,558.49
2022-10-05T10:29:14.874Z,560.36
2022-10-05T10:30:14.934Z,565.59
2022-10-05T10:31:15.108Z,569.46
2022-10-05T10:32:15.176Z,574.86
2022-10-05T10:33:15.284Z,573.87
2022-10-05T10:34:15.458Z,577.84
2022-10-05T10:35:15.551Z,580.36
2022-10-05T10:36:15.659Z,584.43
2022-10-05T10:37:15.756Z,580.86
2022-10-05T10:38:15.856Z,580.86
2022-10-05T10:39:16.006Z,584.94
2022-10-05T10:40:16.170Z,596.98
2022-10-05T10:41:16.236Z,590.12
2022-10-05T10:42:16.386Z,593.80
2022-10-05T10:43:16.537Z,588.55
2022-10-05T10:44:16.687Z,591.69
2022-10-05T10:45:16.782Z,593.27
2022-10-05T10:46:16.914Z,601.83
2022-10-05T10:47:17.013Z,599.13
2022-10-05T10:48:17.172Z,603.47
2022-10-05T10:49:17.280Z,604.02
2022-10-05T10:50:17.390Z,603.47
2022-10-05T10:51:17.524Z,599.67
2022-10-05T10:52:17.666Z,612.34
2022-10-05T10:53:17.762Z,611.21
2022-10-05T10:54:17.912Z,606.76
2022-10-05T10:55:17.996Z,611.77
2022-10-05T10:56:18.163Z,610.65
2022-10-05T10:57:18.244Z,607.87
2022-10-05T10:58:18.430Z,610.09
2022-10-05T10:59:18.554Z,613.46
2022-10-05T11:00:18.601Z,616.87
2022-10-05T11:01:18.717Z,622.04
2022-10-05T11:02:18.865Z,623.21
2022-10-05T11:03:18.964Z,626.13
2022-10-05T11:04:19.084Z,617.44
2022-10-05T11:05:19.206Z,620.89
2022-10-05T11:06:19.324Z,622.04
2022-10-05T11:07:19.474Z,616.87
2022-10-05T11:08:19.602Z,620.89
2022-10-05T11:09:19.713Z,618.58
2022-10-05T11:10:19.802Z,615.73
2022-10-05T11:11:19.893Z,618.58
2022-10-05T11:12:20.023Z,621.47
2022-10-05T11:13:20.178Z,622.63
2022-10-05T11:14:20.282Z,618.01
2022-10-05T11:15:20.382Z,618.01
2022-10-05T11:16:20.495Z,615.16
2022-10-05T11:17:20.592Z,611.21
2022-10-05T11:18:20.741Z,623.21
2022-10-05T11:19:20.987Z,640.57
2022-10-05T11:20:20.961Z,634.47
2022-10-05T11:21:21.045Z,645.53
2022-10-05T11:22:21.201Z,650.57
2022-10-05T11:23:21.307Z,644.28
2022-10-05T11:24:21.441Z,641.18
2022-10-05T11:25:21.538Z,627.90
2022-10-05T11:26:21.659Z,639.96
2022-10-05T11:28:21.988Z,644.28
2022-10-05T11:29:22.030Z,641.18
2022-10-05T11:30:22.134Z,643.04
2022-10-05T11:31:22.262Z,645.53
2022-10-05T11:32:22.349Z,642.42
2022-10-05T11:33:22.452Z,638.73
2022-10-05T11:34:22.602Z,651.84
2022-10-05T11:35:22.700Z,651.84
2022-10-05T11:36:22.800Z,670.18
2022-10-05T11:37:22.879Z,682.53
2022-10-05T11:38:23.031Z,681.83
2022-10-05T11:39:23.170Z,677.67
2022-10-05T11:40:23.262Z,680.44
2022-10-05T11:41:23.389Z,679.75
2022-10-05T11:42:23.529Z,685.34
2022-10-05T11:43:23.667Z,691.73
2022-10-05T11:44:23.790Z,683.93
2022-10-05T11:45:23.881Z,679.75
2022-10-05T11:46:24.048Z,668.84
2022-10-05T11:47:24.179Z,674.93
2022-10-05T11:48:24.278Z,681.14
2022-10-05T11:49:24.439Z,675.62
2022-10-05T11:50:24.548Z,669.51
2022-10-05T11:51:28.627Z,668.17
2022-10-05T11:52:24.778Z,680.44
2022-10-05T11:53:24.920Z,686.75
2022-10-05T11:54:25.067Z,702.67
2022-10-05T11:55:25.217Z,701.93
2022-10-05T11:56:25.378Z,698.99
2022-10-05T11:57:25.440Z,708.64
2022-10-05T11:58:25.567Z,718.57
2022-10-05T11:59:25.725Z,714.72
2022-10-05T12:00:25.807Z,717.02
2022-10-05T12:01:25.908Z,710.15
2022-10-05T12:02:26.007Z,708.64
2022-10-05T12:03:26.175Z,704.15
2022-10-05T12:04:26.378Z,713.95
2022-10-05T12:05:26.377Z,706.39
2022-10-05T12:06:26.456Z,710.91
2022-10-05T12:07:26.597Z,710.91
2022-10-05T12:08:26.707Z,713.95
2022-10-05T12:09:26.846Z,705.64
2022-10-05T12:10:26.955Z,707.14
2022-10-05T12:11:27.057Z,713.95
2022-10-05T12:12:27.223Z,708.64
2022-10-05T12:13:27.339Z,715.49
2022-10-05T12:14:27.444Z,732.78
2022-10-05T12:15:27.525Z,728.78
2022-10-05T12:16:27.798Z,739.28
2022-10-05T12:17:27.795Z,741.75
2022-10-05T12:18:27.954Z,735.21
2022-10-05T12:19:28.161Z,731.98
2022-10-05T12:20:28.184Z,744.23
2022-10-05T12:21:28.303Z,745.06
2022-10-05T12:22:28.401Z,725.61
2022-10-05T12:23:28.512Z,729.58
2022-10-05T12:24:28.655Z,731.18
2022-10-05T12:25:28.742Z,724.03
2022-10-05T12:26:28.883Z,724.03
2022-10-05T12:27:29.014Z,729.58
2022-10-05T12:28:29.200Z,743.40
2022-10-05T12:29:29.302Z,750.00
2022-10-05T12:30:29.417Z,770.34
2022-10-05T12:31:29.567Z,776.61
2022-10-05T12:32:29.640Z,776.61
2022-10-05T12:33:29.743Z,773.91
2022-10-05T12:34:29.854Z,782.07
2022-10-05T12:35:47.030Z,778.42
2022-10-05T12:36:46.224Z,789.47
2022-10-05T12:37:31.223Z,796.06
2022-10-05T12:38:30.326Z,780.24
2022-10-05T12:39:30.637Z,767.68
2022-10-05T12:40:30.582Z,779.33